Weather at Es Senia Airport

Public forecast

Using degrees Celsius for public forecast. Weather courtesy of forecast.io.

Current aviation weather report (METAR) for Es Senia Airport

Retrieved 2020/10/24 00:00 UTC (26 minutes ago):

DAOO 240000Z 20004KT 9999 SCT026 17/14 Q1026

Aviation forecast (TAF) for Es Senia Airport

Retrieved 2020-10-24 00:00 UTC (26 minutes ago):

TAF DAOO 232300Z 2400/2424 22006KT 9999 SCT026 BECMG 2412/2415 28010KT